Messwerte Atlantic City

Temperatur

Temperatur
°C
1594227600 13.00 13.00 29
1594231200 14.00 14.00 30
1594234800 15.00 15.00 29
1594238400 16.00 16.00 30
1594242000 17.00 17.00 29
1594245600 18.00 18.00 29
1594249200 19.00 19.00 28
1594252800 20.00 20.00 27
1594256400 21.00 21.00 26
1594260000 22.00 22.00 26
1594263600 23.00 23.00 26
1594267200 0.00 0.00 26
1594270800 1.00 1.00 25
1594274400 2.00 2.00 25
1594278000 3.00 3.00 25
1594281600 4.00 4.00 24
1594285200 5.00 5.00 22
1594288800 6.00 6.00 22
1594292400 7.00 7.00 23
1594296000 8.00 8.00
1594299600 9.00 9.00 27
1594303200 10.00 10.00 28
1594306800 11.00 11.00
1594310400 12.00 12.00 30

Aktuellste Messwerte

Wettercharakter
Wetter: freundlich
Temperatur
29 °C
Feuchtigkeit
70 %
Wind
15 km/hWindrichtung: Ost
Luftdruck
1016 hPa
Messzeit: 9. Juli 2020, 14.00Datenquelle: METAR

Weitere Messstationen in der Nähe

Messstation Temperatur Entfernung
Millville 31 °C 45 km
Wildwood 29 °C 57 km
Mount Holly 32 °C 59 km
Wrightstown NJ 31 °C 61 km
Lakehurst - 68 km
Philadelphia 32 °C 75 km
Philadelphia 31 °C 79 km

Wind

Windrichtung Böen Mittelwind
° km/h km/h
1594227600 13.00 12.00 - 13.00 170° 15
1594231200 14.00 13.00 - 14.00 180° 30 20
1594234800 15.00 14.00 - 15.00 170° 20
1594238400 16.00 15.00 - 16.00 180° 30 15
1594242000 17.00 16.00 - 17.00 170° 20
1594245600 18.00 17.00 - 18.00 180° 15
1594249200 19.00 18.00 - 19.00 180° 15
1594252800 20.00 19.00 - 20.00 160° 15
1594256400 21.00 20.00 - 21.00 170° 15
1594260000 22.00 21.00 - 22.00 170° 15
1594263600 23.00 22.00 - 23.00 180° 10
1594267200 0.00 23.00 - 0.00 160° 5
1594270800 1.00 0.00 - 1.00 160° 10
1594274400 2.00 1.00 - 2.00 170° 10
1594278000 3.00 2.00 - 3.00 160° 10
1594281600 4.00 3.00 - 4.00 200° 5
1594285200 5.00 4.00 - 5.00 350° 5
1594288800 6.00 5.00 - 6.00 40° 0
1594292400 7.00 6.00 - 7.00 10° 5
1594296000 8.00 7.00 - 8.00
1594299600 9.00 8.00 - 9.00 50° 5
1594303200 10.00 9.00 - 10.00 100° 10
1594306800 11.00 10.00 - 11.00
1594310400 12.00 11.00 - 12.00 80° 15

Ihre Wetterstation

Fehlt Ihre Wetterstation auf unserem Portal?

Schreiben Sie an network@meteonews.ch

Klima

Wann ist es am wärmsten? Wann regnet es am wenigsten? Unsere Klimadaten geben Auskunft.